ホニアラ の空港の天気 - METARとTAF

ホニアラ国際空港 ( AGGH / HIR ) - ソロモン諸島 ガダルカナル島ホニアラ
飛行場実況気象(Metar)
観測時間08/11 18:00 SBT (08/11 07:00 UTC)
風向・風速静穏 0m/s
視程10km以上
天気現象
少しの雲 雲底高度 460m
全天の4割程度の雲 雲底高度 850m
全天を覆う雲 雲底高度 3050m
気温27℃
湿度89%
気圧1011hPa
METARAGGH 110700Z 00000KT 9999 FEW015 SCT028 OVC100 27/25 Q1011
過去の天気等 Google飛行場航空写真 Wunderground天気予報

過去48時間のMETAR

飛行場予報(TAF)
発表時間: 8/11 16:12 SBT (8/11 05:12 UTC)
予報対象時間: 11日17時 SBT ~ 12日17時 SBT
風向・風速東北東 6m/s
視程10km以上
天気現象しゅう雨
全天の4割程度の雲 雲底高度 520m
全天の8割程度の雲 雲底高度 850m
TAF AGGH 110512Z 1106/1206 07012KT 9999 SHRA SCT017 BKN028
PROB30 INTER 1106/1110 5000 TSSH BKN016 FEW017CB T 28 27 26 25 Q 1010 1012 1013 1011